createdAt,value
2018-08-13T00:00:47.179Z,18.10
2018-08-13T00:03:15.910Z,18.10
2018-08-13T00:05:44.176Z,18.10
2018-08-13T00:08:12.479Z,18.10
2018-08-13T00:10:40.691Z,18.10
2018-08-13T00:13:08.896Z,18.00
2018-08-13T00:15:37.137Z,17.90
2018-08-13T00:18:06.272Z,17.80
2018-08-13T00:20:34.534Z,17.80
2018-08-13T00:23:02.714Z,17.70
2018-08-13T00:25:30.997Z,17.70
2018-08-13T00:27:59.170Z,17.60
2018-08-13T00:30:27.406Z,17.60
2018-08-13T00:32:55.724Z,17.50
2018-08-13T00:35:24.149Z,17.40
2018-08-13T00:37:52.450Z,17.20
2018-08-13T00:40:20.740Z,17.20
2018-08-13T00:42:48.973Z,17.10
2018-08-13T00:45:17.154Z,17.10
2018-08-13T00:47:45.281Z,17.10
2018-08-13T00:50:14.591Z,17.00
2018-08-13T00:52:43.157Z,16.90
2018-08-13T00:55:12.375Z,16.80
2018-08-13T00:57:40.602Z,16.80
2018-08-13T01:00:18.597Z,16.70
2018-08-13T01:02:47.425Z,16.70
2018-08-13T01:05:16.760Z,16.70
2018-08-13T01:07:44.954Z,16.80
2018-08-13T01:10:20.820Z,16.80
2018-08-13T01:12:48.986Z,16.80
2018-08-13T01:15:18.448Z,16.70
2018-08-13T01:17:47.980Z,16.70
2018-08-13T01:20:20.671Z,16.50
2018-08-13T01:22:48.932Z,16.50
2018-08-13T01:25:18.952Z,16.40
2018-08-13T01:27:47.137Z,16.40
2018-08-13T01:30:16.815Z,16.40
2018-08-13T01:32:44.960Z,16.50
2018-08-13T01:35:13.168Z,16.60
2018-08-13T01:37:41.386Z,16.60
2018-08-13T01:40:10.661Z,16.70
2018-08-13T01:42:38.836Z,16.70
2018-08-13T01:45:09.761Z,16.70
2018-08-13T01:47:38.050Z,16.70
2018-08-13T01:50:08.373Z,16.70
2018-08-13T01:52:36.533Z,16.70
2018-08-13T01:55:05.814Z,16.70
2018-08-13T01:57:33.997Z,16.50
2018-08-13T02:00:02.234Z,16.40
2018-08-13T02:02:30.384Z,16.40
2018-08-13T02:04:58.525Z,16.40
2018-08-13T02:07:26.677Z,16.30
2018-08-13T02:09:54.837Z,16.30
2018-08-13T02:12:22.984Z,16.30
2018-08-13T02:14:51.129Z,16.30
2018-08-13T02:17:19.279Z,16.20
2018-08-13T02:19:47.426Z,16.10
2018-08-13T02:22:15.561Z,16.00
2018-08-13T02:24:43.693Z,16.00
2018-08-13T02:27:11.850Z,16.10
2018-08-13T02:32:14.649Z,16.10
2018-08-13T02:34:42.753Z,16.00
2018-08-13T02:37:10.933Z,16.00
2018-08-13T02:39:39.108Z,16.10
2018-08-13T02:42:07.237Z,16.10
2018-08-13T02:44:35.407Z,16.10
2018-08-13T02:47:03.549Z,16.10
2018-08-13T02:49:31.677Z,16.20
2018-08-13T02:51:59.825Z,16.20
2018-08-13T02:54:27.952Z,16.10
2018-08-13T02:56:56.073Z,16.20
2018-08-13T02:59:24.223Z,16.20
2018-08-13T03:01:52.353Z,16.10
2018-08-13T03:04:20.491Z,16.00
2018-08-13T03:06:48.620Z,15.90
2018-08-13T03:09:17.822Z,15.80
2018-08-13T03:11:45.969Z,15.90
2018-08-13T03:14:14.553Z,15.90
2018-08-13T03:16:42.715Z,15.90
2018-08-13T03:19:10.867Z,16.00
2018-08-13T03:21:38.976Z,15.90
2018-08-13T03:24:07.113Z,15.80
2018-08-13T03:26:35.238Z,15.80
2018-08-13T03:29:03.361Z,15.80
2018-08-13T03:31:31.520Z,15.90
2018-08-13T03:33:59.645Z,15.90
2018-08-13T03:36:27.773Z,15.90
2018-08-13T03:38:55.902Z,16.00
2018-08-13T03:41:24.077Z,16.00
2018-08-13T03:43:52.218Z,15.90
2018-08-13T03:46:20.388Z,16.00
2018-08-13T03:48:48.530Z,16.00
2018-08-13T03:51:16.812Z,16.00
2018-08-13T03:53:44.975Z,16.00
2018-08-13T03:56:13.092Z,16.00
2018-08-13T03:58:41.277Z,15.90
2018-08-13T04:01:09.433Z,15.90
2018-08-13T04:03:37.581Z,15.90
2018-08-13T04:06:05.789Z,15.80
2018-08-13T04:08:33.965Z,15.80
2018-08-13T04:11:02.098Z,15.80
2018-08-13T04:13:30.220Z,15.70
2018-08-13T04:15:58.368Z,15.60
2018-08-13T04:18:27.546Z,15.60
2018-08-13T04:20:55.664Z,15.60
2018-08-13T04:23:23.809Z,15.50
2018-08-13T04:25:51.963Z,15.50
2018-08-13T04:28:20.073Z,15.50
2018-08-13T04:30:48.212Z,15.50
2018-08-13T04:33:16.339Z,15.50
2018-08-13T04:35:44.455Z,15.40
2018-08-13T04:38:12.573Z,15.40
2018-08-13T04:40:40.709Z,15.40
2018-08-13T04:43:08.873Z,15.40
2018-08-13T04:45:36.997Z,15.40
2018-08-13T04:48:05.140Z,15.40
2018-08-13T04:50:33.297Z,15.30
2018-08-13T04:53:01.410Z,15.30
2018-08-13T04:55:29.870Z,15.40
2018-08-13T04:57:58.007Z,15.40
2018-08-13T05:00:26.174Z,15.50
2018-08-13T05:02:54.289Z,15.50
2018-08-13T05:05:22.436Z,15.50
2018-08-13T05:07:50.557Z,15.60
2018-08-13T05:10:18.688Z,15.70
2018-08-13T05:12:46.813Z,16.00
2018-08-13T05:15:14.947Z,16.20
2018-08-13T05:17:43.060Z,16.60
2018-08-13T05:20:11.234Z,16.80
2018-08-13T05:22:39.423Z,17.20
2018-08-13T05:25:09.285Z,17.60
2018-08-13T05:27:37.507Z,18.00
2018-08-13T05:30:06.914Z,18.40
2018-08-13T05:32:35.102Z,18.90
2018-08-13T05:35:03.427Z,19.30
2018-08-13T05:37:31.688Z,19.60
2018-08-13T05:40:01.017Z,19.80
2018-08-13T05:42:29.304Z,19.80
2018-08-13T05:44:57.564Z,19.70
2018-08-13T05:47:25.938Z,19.80
2018-08-13T05:49:54.136Z,19.90
2018-08-13T05:52:22.377Z,20.00
2018-08-13T05:54:50.563Z,19.80
2018-08-13T05:57:18.809Z,19.60
2018-08-13T05:59:47.049Z,19.50
2018-08-13T06:02:15.837Z,19.10
2018-08-13T06:04:44.077Z,18.90
2018-08-13T06:07:12.412Z,18.70
2018-08-13T06:09:40.658Z,18.90
2018-08-13T06:12:08.880Z,18.90
2018-08-13T06:14:37.146Z,19.10
2018-08-13T06:17:05.673Z,19.30
2018-08-13T06:19:33.898Z,19.40
2018-08-13T06:22:02.249Z,19.50
2018-08-13T06:24:30.613Z,19.80
2018-08-13T06:26:58.957Z,20.00
2018-08-13T06:29:27.358Z,20.50
2018-08-13T06:31:55.637Z,21.00
2018-08-13T06:34:23.914Z,21.40
2018-08-13T06:36:52.511Z,21.90
2018-08-13T06:39:20.873Z,22.10
2018-08-13T06:41:49.195Z,22.20
2018-08-13T06:44:17.641Z,22.20
2018-08-13T06:46:45.976Z,22.10
2018-08-13T06:49:14.458Z,22.20
2018-08-13T06:51:42.840Z,22.00
2018-08-13T06:54:11.148Z,21.90
2018-08-13T06:56:39.523Z,21.80
2018-08-13T06:59:07.979Z,21.50
2018-08-13T07:01:36.246Z,21.30
2018-08-13T07:04:04.661Z,21.10
2018-08-13T07:06:33.203Z,20.80
2018-08-13T07:09:01.470Z,20.50
2018-08-13T07:11:29.779Z,20.50
2018-08-13T07:13:57.982Z,20.30
2018-08-13T07:16:26.868Z,20.20
2018-08-13T07:18:56.142Z,20.30
2018-08-13T07:21:24.405Z,20.40
2018-08-13T07:23:52.797Z,20.40
2018-08-13T07:26:21.071Z,20.50
2018-08-13T07:28:49.363Z,20.60
2018-08-13T07:31:17.753Z,20.70
2018-08-13T07:33:46.224Z,20.80
2018-08-13T07:36:14.617Z,20.90
2018-08-13T07:38:42.973Z,21.10
2018-08-13T07:41:11.188Z,21.30
2018-08-13T07:43:39.632Z,21.60
2018-08-13T07:46:08.033Z,22.00
2018-08-13T07:48:36.335Z,22.40
2018-08-13T07:51:04.591Z,22.70
2018-08-13T07:53:32.805Z,22.90
2018-08-13T07:56:01.383Z,22.90
2018-08-13T07:58:29.770Z,22.90
2018-08-13T08:00:58.053Z,22.90
2018-08-13T08:03:26.468Z,22.90
2018-08-13T08:05:54.755Z,22.80
2018-08-13T08:08:23.277Z,22.80
2018-08-13T08:10:51.713Z,22.80
2018-08-13T08:13:20.184Z,22.80
2018-08-13T08:15:48.569Z,22.80
2018-08-13T08:18:17.144Z,22.70
2018-08-13T08:20:45.640Z,22.70
2018-08-13T08:23:14.060Z,22.60
2018-08-13T08:25:42.385Z,22.60
2018-08-13T08:28:10.616Z,22.50
2018-08-13T08:30:39.653Z,22.50
2018-08-13T08:33:07.985Z,22.50
2018-08-13T08:35:36.259Z,22.60
2018-08-13T08:38:05.032Z,22.60
2018-08-13T08:40:33.304Z,22.60
2018-08-13T08:43:01.789Z,22.60
2018-08-13T08:45:30.168Z,22.50
2018-08-13T08:47:58.401Z,22.50
2018-08-13T08:50:27.812Z,22.50
2018-08-13T08:52:56.152Z,22.50
2018-08-13T08:55:24.472Z,22.60
2018-08-13T08:57:52.763Z,22.60
2018-08-13T09:00:23.185Z,22.60
2018-08-13T09:02:51.661Z,22.50
2018-08-13T09:05:19.986Z,22.50
2018-08-13T09:07:48.360Z,22.50
2018-08-13T09:10:16.625Z,22.50
2018-08-13T09:12:44.969Z,22.60
2018-08-13T09:15:14.983Z,22.60
2018-08-13T09:17:55.231Z,22.70
2018-08-13T09:20:34.737Z,22.80
2018-08-13T09:23:14.611Z,22.70
2018-08-13T09:25:54.246Z,22.80
2018-08-13T09:28:33.591Z,22.60
2018-08-13T09:31:25.101Z,22.60
2018-08-13T09:34:04.566Z,22.60
2018-08-13T09:36:34.087Z,22.50
2018-08-13T09:39:02.407Z,22.50
2018-08-13T09:41:30.622Z,22.50
2018-08-13T09:43:58.901Z,22.50
2018-08-13T09:46:27.216Z,22.50
2018-08-13T09:48:55.521Z,22.50
2018-08-13T09:51:23.899Z,22.50
2018-08-13T09:53:52.453Z,22.50
2018-08-13T09:56:21.271Z,22.50
2018-08-13T09:58:50.147Z,22.60
2018-08-13T10:01:19.137Z,22.50
2018-08-13T10:03:47.449Z,22.60
2018-08-13T10:06:15.901Z,22.70
2018-08-13T10:08:44.073Z,22.80
2018-08-13T10:11:12.344Z,22.90
2018-08-13T10:13:40.511Z,22.90
2018-08-13T10:16:08.720Z,23.00
2018-08-13T10:18:36.857Z,23.20
2018-08-13T10:21:05.129Z,23.20
2018-08-13T10:23:33.285Z,23.30
2018-08-13T10:26:01.457Z,23.30
2018-08-13T10:28:29.677Z,23.40
2018-08-13T10:30:58.109Z,23.30
2018-08-13T10:33:26.539Z,23.30
2018-08-13T10:35:55.111Z,23.30
2018-08-13T10:38:23.523Z,23.20
2018-08-13T10:40:51.833Z,23.20
2018-08-13T10:43:20.193Z,23.20
2018-08-13T10:45:48.648Z,23.10
2018-08-13T10:48:17.220Z,23.20
2018-08-13T10:50:45.472Z,23.20
2018-08-13T10:53:13.688Z,23.30
2018-08-13T10:55:41.860Z,23.20
2018-08-13T10:58:10.036Z,23.30
2018-08-13T11:00:38.296Z,23.20
2018-08-13T11:03:06.608Z,23.30
2018-08-13T11:05:34.760Z,23.30
2018-08-13T11:08:03.045Z,23.20
2018-08-13T11:10:31.225Z,23.20
2018-08-13T11:12:59.385Z,23.10
2018-08-13T11:15:27.630Z,23.10
2018-08-13T11:17:55.953Z,23.10
2018-08-13T11:20:24.638Z,22.90
2018-08-13T11:22:52.897Z,22.90
2018-08-13T11:25:21.299Z,23.00
2018-08-13T11:27:49.508Z,23.10
2018-08-13T11:30:17.800Z,23.20
2018-08-13T11:32:46.001Z,23.30
2018-08-13T11:35:15.047Z,23.30
2018-08-13T11:37:43.237Z,23.40
2018-08-13T11:40:17.211Z,23.40
2018-08-13T11:42:45.963Z,23.30
2018-08-13T11:45:14.148Z,23.20
2018-08-13T11:47:42.583Z,23.20
2018-08-13T11:50:15.059Z,23.10
2018-08-13T11:52:44.474Z,23.10
2018-08-13T11:55:12.642Z,23.10
2018-08-13T11:57:40.970Z,23.10
2018-08-13T12:00:10.756Z,23.00
2018-08-13T12:02:38.979Z,23.00
2018-08-13T12:05:10.860Z,22.90
2018-08-13T12:07:39.135Z,22.90
2018-08-13T12:10:08.881Z,22.80
2018-08-13T12:12:37.435Z,22.80
2018-08-13T12:15:06.265Z,22.80
2018-08-13T12:17:34.460Z,22.80
2018-08-13T12:20:03.069Z,22.80
2018-08-13T12:22:31.369Z,22.80
2018-08-13T12:24:59.637Z,22.80
2018-08-13T12:27:27.789Z,22.70
2018-08-13T12:29:56.033Z,22.70
2018-08-13T12:32:24.284Z,22.70
2018-08-13T12:34:52.470Z,22.70
2018-08-13T12:37:21.096Z,22.70
2018-08-13T12:39:49.763Z,22.70
2018-08-13T12:42:18.365Z,22.80
2018-08-13T12:44:47.697Z,22.80
2018-08-13T12:47:16.025Z,22.90
2018-08-13T12:49:44.258Z,23.00
2018-08-13T12:52:12.846Z,23.30
2018-08-13T12:54:41.007Z,23.60
2018-08-13T12:57:09.234Z,23.90
2018-08-13T12:59:37.377Z,24.10
2018-08-13T13:02:05.656Z,24.20
2018-08-13T13:04:34.001Z,24.20
2018-08-13T13:07:02.531Z,23.90
2018-08-13T13:09:30.689Z,24.00
2018-08-13T13:11:58.897Z,24.20
2018-08-13T13:14:27.234Z,24.30
2018-08-13T13:16:55.629Z,24.40
2018-08-13T13:19:25.075Z,24.50
2018-08-13T13:21:53.486Z,24.60
2018-08-13T13:24:22.137Z,24.90
2018-08-13T13:26:50.613Z,25.10
2018-08-13T13:29:19.203Z,25.30
2018-08-13T13:31:47.842Z,25.60
2018-08-13T13:34:16.218Z,25.70
2018-08-13T13:36:44.468Z,25.60
2018-08-13T13:39:12.613Z,25.70
2018-08-13T13:41:40.893Z,25.80
2018-08-13T13:44:09.070Z,26.00
2018-08-13T13:46:37.247Z,26.00
2018-08-13T13:49:05.429Z,25.60
2018-08-13T13:51:33.623Z,25.60
2018-08-13T13:54:01.928Z,25.70
2018-08-13T13:56:30.163Z,25.60
2018-08-13T13:58:58.361Z,25.50
2018-08-13T14:01:26.587Z,25.40
2018-08-13T14:03:54.757Z,25.50
2018-08-13T14:06:23.122Z,25.60
2018-08-13T14:08:51.217Z,25.70
2018-08-13T14:11:19.460Z,25.70
2018-08-13T14:13:47.635Z,25.70
2018-08-13T14:16:15.789Z,25.80
2018-08-13T14:18:44.029Z,25.90
2018-08-13T14:21:12.181Z,26.00
2018-08-13T14:23:40.393Z,26.00
2018-08-13T14:26:08.577Z,26.10
2018-08-13T14:28:36.738Z,25.90
2018-08-13T14:31:04.902Z,25.80
2018-08-13T14:33:33.097Z,25.90
2018-08-13T14:36:01.250Z,26.00
2018-08-13T14:38:29.399Z,26.10
2018-08-13T14:40:57.549Z,26.10
2018-08-13T14:43:25.701Z,26.10
2018-08-13T14:45:53.993Z,26.10
2018-08-13T14:48:22.764Z,26.10
2018-08-13T14:50:52.032Z,25.90
2018-08-13T14:53:20.900Z,25.70
2018-08-13T14:55:49.097Z,25.90
2018-08-13T14:58:17.297Z,26.00
2018-08-13T15:00:46.563Z,26.20
2018-08-13T15:03:14.721Z,26.10
2018-08-13T15:05:42.957Z,26.10
2018-08-13T15:08:11.021Z,26.20
2018-08-13T15:10:39.158Z,26.30
2018-08-13T15:13:07.395Z,26.30
2018-08-13T15:15:35.522Z,26.30
2018-08-13T15:18:03.768Z,26.40
2018-08-13T15:20:32.433Z,26.30
2018-08-13T15:23:00.555Z,26.20
2018-08-13T15:25:29.297Z,26.30
2018-08-13T15:27:57.605Z,26.40
2018-08-13T15:30:26.721Z,26.40
2018-08-13T15:32:55.358Z,26.30
2018-08-13T15:35:24.068Z,26.10
2018-08-13T15:37:52.678Z,26.00
2018-08-13T15:40:21.333Z,26.00
2018-08-13T15:42:49.966Z,25.90
2018-08-13T15:45:21.585Z,25.80
2018-08-13T15:47:50.408Z,25.70
2018-08-13T15:50:20.040Z,25.50
2018-08-13T15:52:48.893Z,25.30
2018-08-13T15:55:17.745Z,25.10
2018-08-13T15:57:46.411Z,25.00
2018-08-13T16:00:18.016Z,24.90
2018-08-13T16:02:46.300Z,24.90
2018-08-13T16:05:14.441Z,24.70
2018-08-13T16:07:42.604Z,24.60
2018-08-13T16:10:12.525Z,24.50
2018-08-13T16:12:41.188Z,24.40
2018-08-13T16:15:09.639Z,24.20
2018-08-13T16:17:39.166Z,24.00
2018-08-13T16:20:11.317Z,23.50
2018-08-13T16:22:39.581Z,22.80
2018-08-13T16:25:08.414Z,22.30
2018-08-13T16:27:37.047Z,21.90
2018-08-13T16:30:15.639Z,21.60
2018-08-13T16:32:44.180Z,21.30
2018-08-13T16:35:12.889Z,21.10
2018-08-13T16:37:41.243Z,21.00
2018-08-13T16:40:09.580Z,20.90
2018-08-13T16:42:38.157Z,20.90
2018-08-13T16:45:07.041Z,20.70
2018-08-13T16:47:35.728Z,20.80
2018-08-13T16:50:08.522Z,20.90
2018-08-13T16:52:36.998Z,21.00
2018-08-13T16:55:05.710Z,21.10
2018-08-13T16:57:34.169Z,21.00
2018-08-13T17:00:02.642Z,21.10
2018-08-13T17:02:31.153Z,21.10
2018-08-13T17:04:59.581Z,21.20
2018-08-13T17:07:27.913Z,21.10
2018-08-13T17:09:56.246Z,21.10
2018-08-13T17:12:25.304Z,21.20
2018-08-13T17:14:53.714Z,21.00
2018-08-13T17:17:22.104Z,21.00
2018-08-13T17:19:50.401Z,21.10
2018-08-13T17:22:20.014Z,21.00
2018-08-13T17:24:48.409Z,21.10
2018-08-13T17:27:16.848Z,21.10
2018-08-13T17:29:45.125Z,21.20
2018-08-13T17:32:13.298Z,21.10
2018-08-13T17:34:41.624Z,21.10
2018-08-13T17:37:09.869Z,21.20
2018-08-13T17:39:38.089Z,21.20
2018-08-13T17:42:06.388Z,21.30
2018-08-13T17:44:34.597Z,21.20
2018-08-13T17:47:02.865Z,21.20
2018-08-13T17:49:31.217Z,21.20
2018-08-13T17:51:59.765Z,21.10
2018-08-13T17:54:28.330Z,21.00
2018-08-13T17:56:56.801Z,21.10
2018-08-13T17:59:25.269Z,21.20
2018-08-13T18:01:53.971Z,21.10
2018-08-13T18:04:22.669Z,21.00
2018-08-13T18:06:52.008Z,21.00
2018-08-13T18:09:21.219Z,21.00
2018-08-13T18:11:49.946Z,21.00
2018-08-13T18:14:18.694Z,21.00
2018-08-13T18:16:46.947Z,21.00
2018-08-13T18:19:15.280Z,21.10
2018-08-13T18:21:43.626Z,21.00
2018-08-13T18:24:11.845Z,20.90
2018-08-13T18:26:40.121Z,20.90
2018-08-13T18:29:08.607Z,20.90
2018-08-13T18:31:36.822Z,20.90
2018-08-13T18:34:05.086Z,20.80
2018-08-13T18:36:33.305Z,20.80
2018-08-13T18:39:01.545Z,20.80
2018-08-13T18:41:29.854Z,20.90
2018-08-13T18:43:58.308Z,20.80
2018-08-13T18:46:26.930Z,20.70
2018-08-13T18:48:55.328Z,20.70
2018-08-13T18:51:24.452Z,20.50
2018-08-13T18:53:53.120Z,20.60
2018-08-13T18:56:21.711Z,20.40
2018-08-13T18:58:50.183Z,20.40
2018-08-13T19:01:18.434Z,20.30
2018-08-13T19:03:46.709Z,20.30
2018-08-13T19:06:14.941Z,20.30
2018-08-13T19:08:43.120Z,20.30
2018-08-13T19:11:11.655Z,20.30
2018-08-13T19:13:39.889Z,20.20
2018-08-13T19:16:08.320Z,20.30
2018-08-13T19:18:36.629Z,20.20
2018-08-13T19:21:05.135Z,20.20
2018-08-13T19:23:34.003Z,20.10
2018-08-13T19:26:02.343Z,20.00
2018-08-13T19:28:30.747Z,20.00
2018-08-13T19:30:59.108Z,19.90
2018-08-13T19:33:28.649Z,20.00
2018-08-13T19:35:57.462Z,19.90
2018-08-13T19:38:26.146Z,19.90
2018-08-13T19:40:54.854Z,19.90
2018-08-13T19:43:23.396Z,19.80
2018-08-13T19:45:52.420Z,19.70
2018-08-13T19:48:21.946Z,19.70
2018-08-13T19:50:57.339Z,19.60
2018-08-13T19:53:26.001Z,19.60
2018-08-13T19:55:55.071Z,19.60
2018-08-13T19:58:23.883Z,19.60
2018-08-13T20:00:52.908Z,19.60
2018-08-13T20:03:21.888Z,19.60
2018-08-13T20:05:50.806Z,19.60
2018-08-13T20:08:19.945Z,19.60
2018-08-13T20:10:48.410Z,19.50
2018-08-13T20:13:16.757Z,19.50
2018-08-13T20:15:45.046Z,19.60
2018-08-13T20:18:13.361Z,19.60
2018-08-13T20:20:41.660Z,19.60
2018-08-13T20:23:09.981Z,19.50
2018-08-13T20:25:38.296Z,19.50
2018-08-13T20:28:06.775Z,19.50
2018-08-13T20:30:37.181Z,19.50
2018-08-13T20:33:05.463Z,19.50
2018-08-13T20:35:33.757Z,19.40
2018-08-13T20:38:02.108Z,19.30
2018-08-13T20:40:30.469Z,19.20
2018-08-13T20:42:58.848Z,19.20
2018-08-13T20:45:27.830Z,19.10
2018-08-13T20:47:56.498Z,19.10
2018-08-13T20:50:25.706Z,19.10
2018-08-13T20:52:55.224Z,19.10
2018-08-13T20:55:26.402Z,19.00
2018-08-13T20:57:54.968Z,19.00
2018-08-13T21:00:25.144Z,18.90
2018-08-13T21:02:53.680Z,18.90
2018-08-13T21:05:23.384Z,19.00
2018-08-13T21:07:52.013Z,19.00
2018-08-13T21:10:23.208Z,19.00
2018-08-13T21:12:52.137Z,19.00
2018-08-13T21:15:21.112Z,19.00
2018-08-13T21:17:50.004Z,18.90
2018-08-13T21:20:25.874Z,18.90
2018-08-13T21:22:59.494Z,18.90
2018-08-13T21:25:28.077Z,18.90
2018-08-13T21:27:56.706Z,18.80
2018-08-13T21:30:25.564Z,18.80
2018-08-13T21:32:54.383Z,18.70
2018-08-13T21:35:24.470Z,18.70
2018-08-13T21:37:55.069Z,18.70
2018-08-13T21:40:24.700Z,18.70
2018-08-13T21:42:53.326Z,18.60
2018-08-13T21:45:21.889Z,18.60
2018-08-13T21:47:50.763Z,18.60
2018-08-13T21:50:21.778Z,18.60
2018-08-13T21:52:51.157Z,18.70
2018-08-13T21:55:20.307Z,18.60
2018-08-13T21:57:48.687Z,18.60
2018-08-13T22:00:23.061Z,18.60
2018-08-13T22:02:53.989Z,18.60
2018-08-13T22:05:22.564Z,18.60
2018-08-13T22:07:51.323Z,18.60
2018-08-13T22:10:21.431Z,18.60
2018-08-13T22:12:49.857Z,18.60
2018-08-13T22:15:27.005Z,18.60
2018-08-13T22:17:57.326Z,18.60
2018-08-13T22:20:26.864Z,18.60
2018-08-13T22:22:57.261Z,18.60
2018-08-13T22:25:27.925Z,18.60
2018-08-13T22:27:56.324Z,18.60
2018-08-13T22:30:24.967Z,18.60
2018-08-13T22:32:53.334Z,18.70
2018-08-13T22:35:22.490Z,18.60
2018-08-13T22:37:50.933Z,18.60
2018-08-13T22:40:20.440Z,18.60
2018-08-13T22:42:49.879Z,18.60
2018-08-13T22:45:21.039Z,18.60
2018-08-13T22:47:49.499Z,18.60
2018-08-13T22:50:18.241Z,18.60
2018-08-13T22:52:46.744Z,18.50
2018-08-13T22:55:16.760Z,18.60
2018-08-13T22:57:46.752Z,18.60
2018-08-13T23:00:16.637Z,18.50
2018-08-13T23:02:45.870Z,18.50
2018-08-13T23:05:15.902Z,18.60
2018-08-13T23:07:45.854Z,18.50
2018-08-13T23:10:17.296Z,18.50
2018-08-13T23:12:46.953Z,18.50
2018-08-13T23:15:15.945Z,18.40
2018-08-13T23:17:44.457Z,18.40
2018-08-13T23:20:15.979Z,18.40
2018-08-13T23:22:53.364Z,18.30
2018-08-13T23:25:21.835Z,18.30
2018-08-13T23:27:52.461Z,18.30
2018-08-13T23:30:20.866Z,18.30
2018-08-13T23:32:50.523Z,18.30
2018-08-13T23:35:19.580Z,18.30
2018-08-13T23:37:48.067Z,18.30
2018-08-13T23:40:16.645Z,18.20
2018-08-13T23:42:45.012Z,18.20
2018-08-13T23:45:15.238Z,18.10
2018-08-13T23:47:43.566Z,18.10
2018-08-13T23:50:16.274Z,18.20
2018-08-13T23:52:44.622Z,18.10
2018-08-13T23:55:31.254Z,18.20
2018-08-13T23:58:00.451Z,18.20
